createdAt,value
2022-08-07T00:02:59.367Z,3.33
2022-08-07T00:08:02.259Z,3.47
2022-08-07T00:13:23.538Z,4.00
2022-08-07T00:18:28.646Z,3.15
2022-08-07T00:23:41.576Z,2.70
2022-08-07T00:28:45.993Z,2.42
2022-08-07T00:33:57.168Z,2.20
2022-08-07T00:38:59.799Z,2.40
2022-08-07T00:44:02.969Z,1.88
2022-08-07T00:49:04.655Z,2.30
2022-08-07T00:54:07.647Z,1.65
2022-08-07T00:59:14.122Z,5.47
2022-08-07T01:04:24.784Z,3.35
2022-08-07T01:14:48.534Z,2.47
2022-08-07T01:20:06.540Z,2.33
2022-08-07T01:25:54.154Z,1.70
2022-08-07T01:30:38.788Z,2.10
2022-08-07T01:35:54.130Z,2.30
2022-08-07T01:41:02.481Z,2.63
2022-08-07T01:46:05.254Z,3.00
2022-08-07T01:51:58.723Z,2.70
2022-08-07T01:56:49.337Z,2.13
2022-08-07T02:03:05.700Z,2.28
2022-08-07T02:07:50.624Z,2.38
2022-08-07T02:13:03.233Z,2.50
2022-08-07T02:18:29.943Z,1.88
2022-08-07T02:23:36.676Z,2.00
2022-08-07T02:28:40.665Z,1.92
2022-08-07T02:34:03.930Z,2.05
2022-08-07T02:39:43.004Z,1.95
2022-08-07T02:44:49.806Z,1.90
2022-08-07T02:49:59.567Z,2.20
2022-08-07T02:55:27.715Z,2.35
2022-08-07T03:00:35.187Z,1.80
2022-08-07T03:05:39.444Z,2.33
2022-08-07T03:10:47.133Z,2.20
2022-08-07T03:15:56.559Z,2.20
2022-08-07T03:21:04.356Z,1.95
2022-08-07T03:26:08.638Z,2.10
2022-08-07T03:31:43.409Z,2.85
2022-08-07T03:36:48.752Z,2.50
2022-08-07T03:41:51.536Z,2.22
2022-08-07T03:47:13.144Z,2.38
2022-08-07T03:52:26.219Z,2.40
2022-08-07T03:58:34.194Z,2.17
2022-08-07T04:02:56.791Z,2.63
2022-08-07T04:08:05.290Z,2.63
2022-08-07T04:13:07.811Z,2.28
2022-08-07T04:18:56.261Z,2.50
2022-08-07T04:23:43.457Z,2.60
2022-08-07T04:29:03.117Z,1.90
2022-08-07T04:34:06.807Z,2.00
2022-08-07T04:39:25.454Z,2.20
2022-08-07T04:44:28.481Z,2.40
2022-08-07T04:50:03.932Z,2.22
2022-08-07T04:55:14.987Z,2.30
2022-08-07T05:01:13.337Z,2.78
2022-08-07T05:06:42.929Z,2.35
2022-08-07T05:11:58.079Z,2.20
2022-08-07T05:17:11.663Z,2.83
2022-08-07T05:22:19.111Z,2.58
2022-08-07T05:28:02.974Z,2.60
2022-08-07T05:32:55.858Z,2.85
2022-08-07T05:38:09.055Z,2.80
2022-08-07T05:43:14.018Z,2.40
2022-08-07T05:48:19.907Z,2.88
2022-08-07T05:54:12.982Z,2.55
2022-08-07T05:58:52.431Z,2.97
2022-08-07T06:04:01.243Z,2.85
2022-08-07T06:09:10.833Z,3.47
2022-08-07T06:14:20.755Z,4.55
2022-08-07T06:19:57.779Z,5.75
2022-08-07T06:24:56.778Z,5.47
2022-08-07T06:30:00.957Z,5.50
2022-08-07T06:35:03.390Z,4.93
2022-08-07T06:40:21.069Z,5.55
2022-08-07T06:45:25.186Z,5.28
2022-08-07T06:50:33.510Z,5.05
2022-08-07T06:55:53.431Z,5.22
2022-08-07T07:01:11.920Z,4.97
2022-08-07T07:06:26.568Z,5.40
2022-08-07T07:12:09.603Z,4.95
2022-08-07T07:16:59.807Z,3.95
2022-08-07T07:22:05.289Z,3.70
2022-08-07T07:27:17.033Z,3.67
2022-08-07T07:32:21.870Z,4.05
2022-08-07T07:37:49.432Z,2.92
2022-08-07T07:42:54.196Z,3.13
2022-08-07T07:47:58.871Z,3.03
2022-08-07T07:53:02.447Z,4.18
2022-08-07T07:58:05.915Z,4.90
2022-08-07T08:03:16.737Z,6.25
2022-08-07T08:08:35.088Z,4.88
2022-08-07T08:13:53.910Z,4.45
2022-08-07T08:19:00.531Z,3.75
2022-08-07T08:24:44.881Z,4.20
2022-08-07T08:29:56.236Z,3.90
2022-08-07T08:35:00.006Z,3.78
2022-08-07T08:40:02.819Z,3.67
2022-08-07T08:45:14.746Z,3.13
2022-08-07T08:50:35.144Z,2.78
2022-08-07T08:55:53.915Z,2.30
2022-08-07T09:01:16.195Z,3.00
2022-08-07T09:06:47.945Z,2.30
2022-08-07T09:12:20.283Z,2.40
2022-08-07T09:18:16.888Z,2.03
2022-08-07T09:24:33.733Z,1.98
2022-08-07T09:30:04.374Z,2.08
2022-08-07T09:36:04.048Z,2.20
2022-08-07T09:47:25.421Z,1.92
2022-08-07T09:52:16.848Z,2.03
2022-08-07T09:57:46.767Z,2.13
2022-08-07T10:02:55.625Z,2.70
2022-08-07T10:08:15.810Z,1.90
2022-08-07T10:14:04.410Z,2.05
2022-08-07T10:19:45.745Z,1.80
2022-08-07T10:24:55.073Z,1.88
2022-08-07T10:30:12.351Z,2.05
2022-08-07T10:35:56.561Z,1.95
2022-08-07T10:41:52.083Z,1.48
2022-08-07T10:46:50.063Z,2.00
2022-08-07T10:52:02.121Z,2.00
2022-08-07T10:57:18.277Z,2.28
2022-08-07T11:03:01.031Z,2.17
2022-08-07T11:08:17.804Z,2.95
2022-08-07T11:14:46.028Z,2.60
2022-08-07T11:20:24.370Z,1.73
2022-08-07T11:25:48.054Z,1.95
2022-08-07T11:31:08.703Z,1.65
2022-08-07T11:37:04.326Z,2.30
2022-08-07T11:42:18.701Z,2.00
2022-08-07T11:47:55.973Z,8.20
2022-08-07T11:53:16.926Z,1.80
2022-08-07T11:59:22.245Z,2.10
2022-08-07T12:04:45.984Z,2.55
2022-08-07T12:10:05.831Z,1.40
2022-08-07T12:15:46.034Z,1.90
2022-08-07T12:20:55.977Z,2.03
2022-08-07T12:26:29.061Z,1.75
2022-08-07T12:31:52.914Z,2.20
2022-08-07T12:37:08.128Z,1.98
2022-08-07T12:42:22.876Z,2.03
2022-08-07T12:47:37.848Z,1.90
2022-08-07T12:52:55.263Z,1.75
2022-08-07T12:58:02.007Z,2.13
2022-08-07T13:03:55.013Z,1.80
2022-08-07T13:10:20.354Z,2.05
2022-08-07T13:15:29.294Z,2.00
2022-08-07T13:20:51.064Z,1.90
2022-08-07T13:26:35.563Z,2.10
2022-08-07T13:31:59.947Z,2.28
2022-08-07T13:37:40.895Z,1.98
2022-08-07T13:42:44.070Z,2.20
2022-08-07T13:48:05.540Z,2.20
2022-08-07T13:53:10.469Z,2.25
2022-08-07T13:58:36.227Z,1.85
2022-08-07T14:04:07.754Z,1.65
2022-08-07T14:09:09.970Z,2.55
2022-08-07T14:14:25.249Z,2.40
2022-08-07T14:20:43.150Z,2.15
2022-08-07T14:25:17.733Z,2.25
2022-08-07T14:30:32.354Z,2.13
2022-08-07T14:41:03.888Z,2.55
2022-08-07T14:46:08.536Z,2.40
2022-08-07T14:51:16.160Z,1.83
2022-08-07T15:01:51.107Z,2.63
2022-08-07T15:06:53.782Z,2.58
2022-08-07T15:12:07.947Z,1.92
2022-08-07T15:17:16.770Z,2.60
2022-08-07T15:22:31.145Z,2.60
2022-08-07T15:27:41.112Z,2.05
2022-08-07T15:33:19.196Z,2.25
2022-08-07T15:38:32.924Z,2.63
2022-08-07T15:44:03.655Z,2.28
2022-08-07T15:49:12.869Z,2.30
2022-08-07T15:54:17.926Z,2.40
2022-08-07T15:59:38.949Z,2.63
2022-08-07T16:04:44.264Z,2.47
2022-08-07T16:09:57.311Z,2.03
2022-08-07T16:15:54.899Z,3.42
2022-08-07T16:21:44.106Z,2.50
2022-08-07T16:26:34.826Z,2.53
2022-08-07T16:31:49.994Z,2.35
2022-08-07T16:38:03.832Z,2.40
2022-08-07T16:42:59.308Z,2.05
2022-08-07T16:48:28.647Z,2.25
2022-08-07T16:54:06.439Z,2.10
2022-08-07T16:59:46.962Z,2.20
2022-08-07T17:05:15.191Z,2.13
2022-08-07T17:10:54.271Z,2.60
2022-08-07T17:16:02.384Z,2.30
2022-08-07T17:21:18.419Z,2.10
2022-08-07T17:32:02.929Z,2.38
2022-08-07T17:38:06.543Z,2.83
2022-08-07T17:42:59.418Z,2.60
2022-08-07T17:48:12.923Z,3.05
2022-08-07T17:53:59.812Z,2.72
2022-08-07T17:59:04.019Z,2.72
2022-08-07T18:04:48.025Z,3.20
2022-08-07T18:10:06.470Z,2.30
2022-08-07T18:15:22.653Z,2.50
2022-08-07T18:21:04.307Z,3.15
2022-08-07T18:26:05.293Z,2.83
2022-08-07T18:31:23.909Z,2.70
2022-08-07T18:36:53.709Z,2.65
2022-08-07T18:42:06.580Z,2.78
2022-08-07T18:47:22.624Z,2.25
2022-08-07T18:52:37.700Z,2.08
2022-08-07T18:57:58.650Z,2.25
2022-08-07T19:03:16.020Z,2.00
2022-08-07T19:08:28.910Z,2.05
2022-08-07T19:13:45.817Z,2.10
2022-08-07T19:19:03.929Z,1.95
2022-08-07T19:24:30.835Z,1.95
2022-08-07T19:31:04.457Z,1.83
2022-08-07T19:35:07.037Z,1.60
2022-08-07T19:40:10.690Z,2.08
2022-08-07T19:46:06.154Z,2.10
2022-08-07T19:50:46.550Z,2.10
2022-08-07T19:55:58.018Z,2.35
2022-08-07T20:01:01.735Z,1.90
2022-08-07T20:06:06.274Z,2.08
2022-08-07T20:11:34.197Z,3.65
2022-08-07T20:16:48.055Z,2.10
2022-08-07T20:21:57.538Z,2.42
2022-08-07T20:27:07.510Z,2.90
2022-08-07T20:32:11.419Z,2.45
2022-08-07T20:37:29.537Z,2.40
2022-08-07T20:42:33.615Z,2.20
2022-08-07T20:47:56.724Z,2.22
2022-08-07T20:53:00.237Z,3.28
2022-08-07T20:58:12.024Z,2.50
2022-08-07T21:03:23.180Z,2.50
2022-08-07T21:08:38.043Z,1.80
2022-08-07T21:14:16.164Z,2.08
2022-08-07T21:19:14.016Z,1.85
2022-08-07T21:24:27.299Z,1.92
2022-08-07T21:30:00.741Z,1.95
2022-08-07T21:35:17.252Z,2.55
2022-08-07T21:40:58.397Z,1.67
2022-08-07T21:46:24.521Z,3.22
2022-08-07T21:51:51.170Z,1.60
2022-08-07T21:57:44.456Z,1.50
2022-08-07T22:03:06.602Z,2.10
2022-08-07T22:08:10.532Z,1.80
2022-08-07T22:13:15.268Z,1.80
2022-08-07T22:18:35.715Z,2.10
2022-08-07T22:23:53.168Z,1.90
2022-08-07T22:29:33.878Z,1.90
2022-08-07T22:40:43.077Z,2.10
2022-08-07T22:52:10.063Z,2.08
2022-08-07T22:57:37.194Z,2.20
2022-08-07T23:02:58.588Z,2.63
2022-08-07T23:08:04.840Z,2.38
2022-08-07T23:13:22.137Z,2.20
2022-08-07T23:19:13.659Z,2.50
2022-08-07T23:24:47.658Z,2.45
2022-08-07T23:30:39.500Z,2.17
2022-08-07T23:35:58.939Z,1.90
2022-08-07T23:42:01.383Z,2.58
2022-08-07T23:47:21.014Z,2.00
2022-08-07T23:53:49.643Z,2.22
2022-08-07T23:59:10.553Z,2.35
